createdAt,value
2018-09-22T00:01:16.619Z,101099.00
2018-09-22T00:03:20.362Z,101106.00
2018-09-22T00:05:23.563Z,101105.00
2018-09-22T00:07:26.815Z,101113.00
2018-09-22T00:09:29.913Z,101114.00
2018-09-22T00:11:33.011Z,101119.00
2018-09-22T00:13:36.218Z,101124.00
2018-09-22T00:15:39.484Z,101124.00
2018-09-22T00:17:44.325Z,101125.00
2018-09-22T00:19:47.526Z,101121.00
2018-09-22T00:21:50.852Z,101121.00
2018-09-22T00:23:54.189Z,101124.00
2018-09-22T00:25:57.358Z,101123.00
2018-09-22T00:28:00.543Z,101124.00
2018-09-22T00:30:03.684Z,101125.00
2018-09-22T00:32:06.993Z,101133.00
2018-09-22T00:34:11.461Z,101137.00
2018-09-22T00:36:14.587Z,101143.00
2018-09-22T00:38:17.700Z,101136.00
2018-09-22T00:40:20.779Z,101129.00
2018-09-22T00:42:23.827Z,101125.00
2018-09-22T00:44:26.831Z,101120.00
2018-09-22T00:46:29.958Z,101127.00
2018-09-22T00:48:33.042Z,101126.00
2018-09-22T00:50:36.126Z,101127.00
2018-09-22T00:52:39.486Z,101131.00
2018-09-22T00:54:43.898Z,101129.00
2018-09-22T00:56:46.988Z,101139.00
2018-09-22T00:58:50.119Z,101144.00
2018-09-22T01:00:53.185Z,101139.00
2018-09-22T01:02:56.242Z,101142.00
2018-09-22T01:04:59.329Z,101149.00
2018-09-22T01:07:02.394Z,101153.00
2018-09-22T01:09:07.127Z,101142.00
2018-09-22T01:11:11.714Z,101146.00
2018-09-22T01:13:14.827Z,101144.00
2018-09-22T01:15:17.916Z,101152.00
2018-09-22T01:17:21.308Z,101157.00
2018-09-22T01:19:24.387Z,101148.00
2018-09-22T01:21:27.808Z,101151.00
2018-09-22T01:23:30.882Z,101155.00
2018-09-22T01:25:33.963Z,101150.00
2018-09-22T01:27:37.076Z,101162.00
2018-09-22T01:29:41.821Z,101160.00
2018-09-22T01:31:45.530Z,101163.00
2018-09-22T01:33:48.566Z,101161.00
2018-09-22T01:35:51.637Z,101156.00
2018-09-22T01:37:54.696Z,101154.00
2018-09-22T01:39:57.818Z,101157.00
2018-09-22T01:42:01.265Z,101165.00
2018-09-22T01:44:04.417Z,101163.00
2018-09-22T01:46:07.588Z,101163.00
2018-09-22T01:48:11.984Z,101169.00
2018-09-22T01:50:15.053Z,101166.00
2018-09-22T01:52:18.120Z,101174.00
2018-09-22T01:54:21.253Z,101170.00
2018-09-22T01:56:24.425Z,101169.00
2018-09-22T01:58:27.535Z,101166.00
2018-09-22T02:00:30.724Z,101173.00
2018-09-22T02:02:34.169Z,101173.00
2018-09-22T02:04:37.290Z,101176.00
2018-09-22T02:06:41.703Z,101170.00
2018-09-22T02:08:44.828Z,101175.00
2018-09-22T02:10:47.910Z,101180.00
2018-09-22T02:12:51.007Z,101187.00
2018-09-22T02:14:54.062Z,101185.00
2018-09-22T02:16:57.102Z,101197.00
2018-09-22T02:19:00.153Z,101184.00
2018-09-22T02:21:03.222Z,101193.00
2018-09-22T02:23:06.753Z,101189.00
2018-09-22T02:25:09.793Z,101192.00
2018-09-22T02:27:14.893Z,101197.00
2018-09-22T02:29:18.258Z,101201.00
2018-09-22T02:31:21.310Z,101204.00
2018-09-22T02:33:24.386Z,101197.00
2018-09-22T02:35:27.524Z,101206.00
2018-09-22T02:37:30.573Z,101203.00
2018-09-22T02:39:33.657Z,101200.00
2018-09-22T02:41:37.212Z,101206.00
2018-09-22T02:43:40.824Z,101205.00
2018-09-22T02:45:44.285Z,101204.00
2018-09-22T02:47:47.438Z,101199.00
2018-09-22T02:49:50.499Z,101200.00
2018-09-22T02:51:53.588Z,101201.00
2018-09-22T02:53:56.663Z,101203.00
2018-09-22T02:55:59.726Z,101196.00
2018-09-22T02:58:03.086Z,101199.00
2018-09-22T03:00:06.390Z,101195.00
2018-09-22T03:02:09.871Z,101203.00
2018-09-22T03:04:12.933Z,101200.00
2018-09-22T03:06:15.977Z,101204.00
2018-09-22T03:08:19.263Z,101211.00
2018-09-22T03:10:22.310Z,101211.00
2018-09-22T03:12:25.462Z,101217.00
2018-09-22T03:14:28.531Z,101220.00
2018-09-22T03:16:31.729Z,101220.00
2018-09-22T03:18:34.755Z,101224.00
2018-09-22T03:20:38.102Z,101228.00
2018-09-22T03:22:42.590Z,101232.00
2018-09-22T03:24:45.651Z,101227.00
2018-09-22T03:26:48.730Z,101233.00
2018-09-22T03:28:51.790Z,101238.00
2018-09-22T03:30:54.831Z,101231.00
2018-09-22T03:32:58.010Z,101232.00
2018-09-22T03:35:01.071Z,101238.00
2018-09-22T03:37:04.146Z,101233.00
2018-09-22T03:39:09.254Z,101242.00
2018-09-22T03:41:13.713Z,101239.00
2018-09-22T03:43:16.809Z,101238.00
2018-09-22T03:45:19.885Z,101245.00
2018-09-22T03:47:22.958Z,101242.00
2018-09-22T03:49:26.208Z,101244.00
2018-09-22T03:51:29.262Z,101238.00
2018-09-22T03:53:32.365Z,101237.00
2018-09-22T03:55:35.479Z,101233.00
2018-09-22T03:57:38.543Z,101232.00
2018-09-22T03:59:43.123Z,101239.00
2018-09-22T04:01:46.191Z,101240.00
2018-09-22T04:03:49.306Z,101240.00
2018-09-22T04:05:52.425Z,101243.00
2018-09-22T04:07:55.727Z,101244.00
2018-09-22T04:09:58.780Z,101243.00
2018-09-22T04:12:01.826Z,101247.00
2018-09-22T04:14:04.898Z,101243.00
2018-09-22T04:16:08.096Z,101243.00
2018-09-22T04:18:12.136Z,101244.00
2018-09-22T04:20:15.250Z,101250.00
2018-09-22T04:22:18.234Z,101257.00
2018-09-22T04:24:21.448Z,101262.00
2018-09-22T04:26:24.830Z,101258.00
2018-09-22T04:28:27.849Z,101266.00
2018-09-22T04:30:30.905Z,101262.00
2018-09-22T04:32:34.004Z,101264.00
2018-09-22T04:34:37.052Z,101264.00
2018-09-22T04:36:41.615Z,101272.00
2018-09-22T04:38:44.735Z,101270.00
2018-09-22T04:40:47.819Z,101270.00
2018-09-22T04:42:51.224Z,101270.00
2018-09-22T04:44:54.282Z,101274.00
2018-09-22T04:46:57.358Z,101275.00
2018-09-22T04:49:00.567Z,101276.00
2018-09-22T04:51:03.666Z,101267.00
2018-09-22T04:53:07.002Z,101272.00
2018-09-22T04:55:12.115Z,101268.00
2018-09-22T04:57:15.317Z,101277.00
2018-09-22T04:59:18.411Z,101280.00
2018-09-22T05:01:21.802Z,101280.00
2018-09-22T05:03:24.861Z,101293.00
2018-09-22T05:05:28.037Z,101302.00
2018-09-22T05:07:31.155Z,101303.00
2018-09-22T05:09:34.227Z,101304.00
2018-09-22T05:11:37.285Z,101309.00
2018-09-22T05:13:42.434Z,101317.00
2018-09-22T05:15:45.471Z,101315.00
2018-09-22T05:17:48.574Z,101315.00
2018-09-22T05:19:51.862Z,101323.00
2018-09-22T05:21:54.888Z,101327.00
2018-09-22T05:23:57.951Z,101329.00
2018-09-22T05:26:01.448Z,101338.00
2018-09-22T05:28:04.509Z,101336.00
2018-09-22T05:30:07.580Z,101339.00
2018-09-22T05:32:12.488Z,101331.00
2018-09-22T05:34:15.555Z,101340.00
2018-09-22T05:36:18.582Z,101338.00
2018-09-22T05:38:21.719Z,101337.00
2018-09-22T05:40:24.751Z,101355.00
2018-09-22T05:42:27.835Z,101358.00
2018-09-22T05:44:30.908Z,101352.00
2018-09-22T05:46:34.000Z,101362.00
2018-09-22T05:48:37.099Z,101362.00
2018-09-22T05:50:42.032Z,101363.00
2018-09-22T05:52:45.104Z,101381.00
2018-09-22T05:54:48.227Z,101375.00
2018-09-22T05:56:51.288Z,101385.00
2018-09-22T05:58:54.443Z,101383.00
2018-09-22T06:00:57.585Z,101386.00
2018-09-22T06:03:00.641Z,101390.00
2018-09-22T06:05:03.759Z,101396.00
2018-09-22T06:07:07.120Z,101393.00
2018-09-22T06:09:11.930Z,101404.00
2018-09-22T06:11:14.962Z,101406.00
2018-09-22T06:13:18.053Z,101407.00
2018-09-22T06:15:21.106Z,101405.00
2018-09-22T06:17:24.194Z,101415.00
2018-09-22T06:19:27.263Z,101414.00
2018-09-22T06:21:30.336Z,101420.00
2018-09-22T06:23:33.481Z,101422.00
2018-09-22T06:25:36.667Z,101423.00
2018-09-22T06:27:39.675Z,101434.00
2018-09-22T06:29:44.023Z,101433.00
2018-09-22T06:31:47.331Z,101431.00
2018-09-22T06:33:50.369Z,101439.00
2018-09-22T06:35:53.383Z,101446.00
2018-09-22T06:37:56.392Z,101440.00
2018-09-22T06:39:59.454Z,101447.00
2018-09-22T06:42:02.543Z,101447.00
2018-09-22T06:44:05.653Z,101451.00
2018-09-22T06:46:08.742Z,101460.00
2018-09-22T06:48:13.868Z,101450.00
2018-09-22T06:50:17.472Z,101447.00
2018-09-22T06:52:20.528Z,101461.00
2018-09-22T06:54:23.589Z,101454.00
2018-09-22T06:56:26.647Z,101463.00
2018-09-22T06:58:29.711Z,101467.00
2018-09-22T07:00:32.766Z,101463.00
2018-09-22T07:02:35.792Z,101483.00
2018-09-22T07:04:39.115Z,101467.00
2018-09-22T07:06:43.732Z,101471.00
2018-09-22T07:08:46.934Z,101475.00
2018-09-22T07:10:49.983Z,101474.00
2018-09-22T07:12:53.087Z,101475.00
2018-09-22T07:14:56.170Z,101476.00
2018-09-22T07:16:59.218Z,101473.00
2018-09-22T07:19:02.246Z,101479.00
2018-09-22T07:21:05.587Z,101485.00
2018-09-22T07:23:16.093Z,101482.00
2018-09-22T07:25:19.198Z,101483.00
2018-09-22T07:27:22.518Z,101494.00
2018-09-22T07:29:25.550Z,101487.00
2018-09-22T07:31:28.579Z,101491.00
2018-09-22T07:33:31.639Z,101508.00
2018-09-22T07:35:34.920Z,101504.00
2018-09-22T07:37:37.923Z,101506.00
2018-09-22T07:39:42.274Z,101508.00
2018-09-22T07:41:45.296Z,101499.00
2018-09-22T07:43:48.366Z,101505.00
2018-09-22T07:45:51.470Z,101511.00
2018-09-22T07:47:54.638Z,101500.00
2018-09-22T07:49:57.845Z,101505.00
2018-09-22T07:52:00.871Z,101520.00
2018-09-22T07:54:03.946Z,101515.00
2018-09-22T07:56:06.950Z,101506.00
2018-09-22T07:58:09.963Z,101515.00
2018-09-22T08:00:14.199Z,101517.00
2018-09-22T08:02:17.370Z,101518.00
2018-09-22T08:04:20.380Z,101522.00
2018-09-22T08:06:24.262Z,101522.00
2018-09-22T08:08:27.546Z,101522.00
2018-09-22T08:10:30.600Z,101525.00
2018-09-22T08:12:33.602Z,101529.00
2018-09-22T08:14:36.631Z,101529.00
2018-09-22T08:16:39.968Z,101529.00
2018-09-22T08:18:43.009Z,101532.00
2018-09-22T08:20:46.050Z,101527.00
2018-09-22T08:22:49.304Z,101529.00
2018-09-22T08:24:52.437Z,101532.00
2018-09-22T08:26:55.539Z,101514.00
2018-09-22T08:28:58.762Z,101525.00
2018-09-22T08:31:01.774Z,101524.00
2018-09-22T08:33:04.805Z,101515.00
2018-09-22T08:35:07.859Z,101518.00
2018-09-22T08:37:12.328Z,101519.00
2018-09-22T08:39:15.315Z,101518.00
2018-09-22T08:41:18.319Z,101519.00
2018-09-22T08:43:21.360Z,101522.00
2018-09-22T08:45:24.368Z,101524.00
2018-09-22T09:34:10.457Z,101544.00
2018-09-22T09:36:13.561Z,101555.00
2018-09-22T09:38:16.629Z,101560.00
2018-09-22T09:40:19.755Z,101557.00
2018-09-22T09:42:22.832Z,101556.00
2018-09-22T09:44:25.839Z,101556.00
2018-09-22T09:46:30.603Z,101538.00
2018-09-22T09:48:33.617Z,101543.00
2018-09-22T09:50:36.779Z,101539.00
2018-09-22T09:52:39.817Z,101541.00
2018-09-22T09:54:42.937Z,101531.00
2018-09-22T09:56:45.992Z,101521.00
2018-09-22T09:58:49.225Z,101522.00
2018-09-22T10:00:52.409Z,101530.00
2018-09-22T10:02:55.553Z,101532.00
2018-09-22T10:04:58.679Z,101536.00
2018-09-22T10:07:01.863Z,101527.00
2018-09-22T10:09:07.379Z,101518.00
2018-09-22T10:11:10.585Z,101522.00
2018-09-22T10:13:14.235Z,101520.00
2018-09-22T10:15:17.538Z,101519.00
2018-09-22T10:17:20.730Z,101530.00
2018-09-22T10:19:23.978Z,101526.00
2018-09-22T10:21:27.067Z,101529.00
2018-09-22T10:23:30.234Z,101525.00
2018-09-22T10:25:33.446Z,101524.00
2018-09-22T10:27:36.756Z,101520.00
2018-09-22T10:29:39.978Z,101541.00
2018-09-22T10:31:43.022Z,101530.00
2018-09-22T10:33:46.198Z,101524.00
2018-09-22T10:35:49.713Z,101531.00
2018-09-22T10:37:53.080Z,101533.00
2018-09-22T10:39:56.187Z,101529.00
2018-09-22T10:41:59.232Z,101530.00
2018-09-22T10:44:02.457Z,101531.00
2018-09-22T10:46:05.681Z,101527.00
2018-09-22T10:48:08.755Z,101525.00
2018-09-22T10:50:11.891Z,101534.00
2018-09-22T10:52:15.013Z,101527.00
2018-09-22T10:54:18.538Z,101530.00
2018-09-22T10:56:22.015Z,101517.00
2018-09-22T10:58:25.094Z,101524.00
2018-09-22T11:00:28.612Z,101525.00
2018-09-22T11:02:31.956Z,101525.00
2018-09-22T11:04:35.735Z,101528.00
2018-09-22T11:06:39.829Z,101529.00
2018-09-22T11:08:43.488Z,101529.00
2018-09-22T11:10:46.965Z,101524.00
2018-09-22T11:12:50.303Z,101526.00
2018-09-22T11:14:55.150Z,101520.00
2018-09-22T11:16:58.671Z,101511.00
2018-09-22T11:19:03.700Z,101519.00
2018-09-22T11:21:07.000Z,101517.00
2018-09-22T11:23:10.290Z,101508.00
2018-09-22T11:25:13.971Z,101509.00
2018-09-22T11:27:17.158Z,101496.00
2018-09-22T11:29:20.482Z,101489.00
2018-09-22T11:31:23.724Z,101484.00
2018-09-22T11:33:26.790Z,101492.00
2018-09-22T11:35:30.262Z,101481.00
2018-09-22T11:37:33.402Z,101478.00
2018-09-22T11:39:36.805Z,101488.00
2018-09-22T11:41:39.948Z,101493.00
2018-09-22T11:43:43.101Z,101491.00
2018-09-22T11:45:46.162Z,101490.00
2018-09-22T11:47:49.585Z,101491.00
2018-09-22T11:49:52.726Z,101485.00
2018-09-22T11:51:55.846Z,101482.00
2018-09-22T11:54:00.666Z,101475.00
2018-09-22T12:00:36.598Z,101484.00
2018-09-22T12:02:39.577Z,101467.00
2018-09-22T12:04:42.509Z,101463.00
2018-09-22T12:06:45.578Z,101466.00
2018-09-22T12:08:48.455Z,101460.00
2018-09-22T12:10:51.403Z,101465.00
2018-09-22T12:12:54.370Z,101460.00
2018-09-22T12:14:58.629Z,101467.00
2018-09-22T12:17:01.627Z,101465.00
2018-09-22T12:19:04.802Z,101468.00
2018-09-22T12:21:07.742Z,101466.00
2018-09-22T12:23:10.669Z,101451.00
2018-09-22T12:25:13.639Z,101455.00
2018-09-22T12:27:16.550Z,101447.00
2018-09-22T12:29:19.531Z,101446.00
2018-09-22T12:31:22.544Z,101449.00
2018-09-22T12:33:25.509Z,101444.00
2018-09-22T12:35:30.781Z,101467.00
2018-09-22T12:37:33.717Z,101455.00
2018-09-22T12:39:36.656Z,101452.00
2018-09-22T12:41:40.165Z,101446.00
2018-09-22T12:43:43.142Z,101452.00
2018-09-22T12:45:46.053Z,101441.00
2018-09-22T12:47:49.009Z,101444.00
2018-09-22T12:49:52.009Z,101431.00
2018-09-22T12:51:54.938Z,101447.00
2018-09-22T12:53:59.830Z,101435.00
2018-09-22T12:56:02.783Z,101440.00
2018-09-22T12:58:05.895Z,101441.00
2018-09-22T13:00:08.948Z,101441.00
2018-09-22T13:02:11.913Z,101456.00
2018-09-22T13:04:14.954Z,101447.00
2018-09-22T13:06:17.924Z,101452.00
2018-09-22T13:08:20.892Z,101434.00
2018-09-22T13:10:23.894Z,101435.00
2018-09-22T13:12:28.203Z,101437.00
2018-09-22T13:14:31.127Z,101433.00
2018-09-22T13:16:34.096Z,101425.00
2018-09-22T13:18:37.063Z,101440.00
2018-09-22T13:20:40.196Z,101436.00
2018-09-22T13:22:43.254Z,101436.00
2018-09-22T13:24:46.458Z,101432.00
2018-09-22T13:26:49.533Z,101448.00
2018-09-22T13:28:52.474Z,101445.00
2018-09-22T13:30:55.452Z,101437.00
2018-09-22T13:33:00.079Z,101432.00
2018-09-22T13:35:03.219Z,101426.00
2018-09-22T13:37:06.928Z,101430.00
2018-09-22T13:39:11.196Z,101426.00
2018-09-22T13:41:14.111Z,101422.00
2018-09-22T13:43:17.035Z,101416.00
2018-09-22T13:45:19.987Z,101418.00
2018-09-22T13:47:22.989Z,101391.00
2018-09-22T13:49:27.449Z,101415.00
2018-09-22T13:51:30.462Z,101417.00
2018-09-22T13:53:33.416Z,101408.00
2018-09-22T13:55:36.333Z,101408.00
2018-09-22T13:57:39.253Z,101411.00
2018-09-22T13:59:42.207Z,101416.00
2018-09-22T14:01:45.182Z,101422.00
2018-09-22T14:03:48.201Z,101421.00
2018-09-22T14:05:51.093Z,101419.00
2018-09-22T14:07:54.269Z,101418.00
2018-09-22T14:09:58.695Z,101414.00
2018-09-22T14:12:01.718Z,101430.00
2018-09-22T14:14:04.681Z,101427.00
2018-09-22T14:16:07.717Z,101420.00
2018-09-22T14:18:10.721Z,101417.00
2018-09-22T14:20:13.660Z,101413.00
2018-09-22T14:22:16.639Z,101406.00
2018-09-22T14:24:19.815Z,101405.00
2018-09-22T14:26:22.826Z,101406.00
2018-09-22T14:28:27.360Z,101412.00
2018-09-22T14:30:30.433Z,101418.00
2018-09-22T14:32:33.384Z,101420.00
2018-09-22T14:34:36.326Z,101419.00
2018-09-22T14:36:39.302Z,101416.00
2018-09-22T14:38:42.278Z,101412.00
2018-09-22T14:40:45.208Z,101415.00
2018-09-22T14:42:48.202Z,101409.00
2018-09-22T14:44:51.130Z,101424.00
2018-09-22T14:46:54.060Z,101427.00
2018-09-22T14:48:58.778Z,101420.00
2018-09-22T14:51:01.876Z,101417.00
2018-09-22T14:53:04.963Z,101415.00
2018-09-22T14:55:08.194Z,101409.00
2018-09-22T14:57:11.284Z,101417.00
2018-09-22T14:59:14.204Z,101412.00
2018-09-22T15:01:17.161Z,101410.00
2018-09-22T15:03:20.107Z,101403.00
2018-09-22T15:05:23.051Z,101403.00
2018-09-22T15:07:28.396Z,101404.00
2018-09-22T15:09:31.323Z,101402.00
2018-09-22T15:11:34.251Z,101400.00
2018-09-22T15:13:37.228Z,101403.00
2018-09-22T15:15:40.171Z,101404.00
2018-09-22T15:17:43.124Z,101392.00
2018-09-22T15:19:46.078Z,101390.00
2018-09-22T15:21:49.002Z,101387.00
2018-09-22T15:23:52.214Z,101392.00
2018-09-22T15:25:55.218Z,101391.00
2018-09-22T15:27:59.494Z,101395.00
2018-09-22T15:30:02.899Z,101397.00
2018-09-22T15:32:06.005Z,101394.00
2018-09-22T15:34:08.926Z,101393.00
2018-09-22T15:36:11.902Z,101394.00
2018-09-22T15:38:14.818Z,101384.00
2018-09-22T15:40:17.746Z,101379.00
2018-09-22T15:42:20.716Z,101396.00
2018-09-22T15:44:23.671Z,101382.00
2018-09-22T15:46:28.137Z,101378.00
2018-09-22T15:48:31.285Z,101386.00
2018-09-22T15:50:34.238Z,101389.00
2018-09-22T15:52:37.168Z,101386.00
2018-09-22T15:54:40.119Z,101389.00
2018-09-22T15:56:43.055Z,101384.00
2018-09-22T15:58:46.054Z,101372.00
2018-09-22T16:00:49.132Z,101373.00
2018-09-22T16:02:52.071Z,101376.00
2018-09-22T16:04:54.989Z,101376.00
2018-09-22T16:06:59.656Z,101381.00
2018-09-22T16:09:02.963Z,101376.00
2018-09-22T16:11:06.275Z,101369.00
2018-09-22T16:13:09.382Z,101369.00
2018-09-22T16:15:12.315Z,101364.00
2018-09-22T16:17:15.667Z,101363.00
2018-09-22T16:19:18.611Z,101359.00
2018-09-22T16:21:21.661Z,101369.00
2018-09-22T16:23:24.640Z,101369.00
2018-09-22T16:25:29.408Z,101366.00
2018-09-22T16:27:32.360Z,101358.00
2018-09-22T16:29:35.934Z,101356.00
2018-09-22T16:31:38.873Z,101356.00
2018-09-22T16:33:41.817Z,101348.00
2018-09-22T16:35:44.740Z,101347.00
2018-09-22T16:37:47.714Z,101358.00
2018-09-22T16:39:50.640Z,101363.00
2018-09-22T16:41:53.610Z,101360.00
2018-09-22T16:43:58.543Z,101367.00
2018-09-22T16:46:01.461Z,101357.00
2018-09-22T16:48:04.402Z,101356.00
2018-09-22T16:50:07.446Z,101355.00
2018-09-22T16:52:10.417Z,101370.00
2018-09-22T16:54:13.986Z,101377.00
2018-09-22T16:56:16.967Z,101382.00
2018-09-22T16:58:19.909Z,101377.00
2018-09-22T17:00:22.867Z,101367.00
2018-09-22T17:02:27.668Z,101361.00
2018-09-22T17:04:31.579Z,101353.00
2018-09-22T17:06:34.515Z,101359.00
2018-09-22T17:08:37.817Z,101373.00
2018-09-22T17:10:40.741Z,101378.00
2018-09-22T17:12:43.634Z,101379.00
2018-09-22T17:14:46.739Z,101386.00
2018-09-22T17:16:49.672Z,101374.00
2018-09-22T17:18:52.608Z,101380.00
2018-09-22T17:20:55.689Z,101369.00
2018-09-22T17:22:58.609Z,101361.00
2018-09-22T17:25:01.793Z,101359.00
2018-09-22T17:27:04.780Z,101364.00
2018-09-22T17:29:07.715Z,101360.00
2018-09-22T17:31:10.664Z,101351.00
2018-09-22T17:33:13.737Z,101365.00
2018-09-22T17:35:16.805Z,101372.00
2018-09-22T17:37:19.782Z,101369.00
2018-09-22T17:39:22.763Z,101359.00
2018-09-22T17:41:25.742Z,101346.00
2018-09-22T17:43:29.924Z,101343.00
2018-09-22T17:45:32.892Z,101356.00
2018-09-22T17:47:36.014Z,101364.00
2018-09-22T17:49:38.933Z,101368.00
2018-09-22T17:51:41.888Z,101374.00
2018-09-22T17:53:44.956Z,101383.00
2018-09-22T17:55:47.872Z,101384.00
2018-09-22T17:57:50.814Z,101380.00
2018-09-22T17:59:53.858Z,101372.00
2018-09-22T18:01:58.775Z,101368.00
2018-09-22T18:04:01.755Z,101352.00
2018-09-22T18:06:04.776Z,101355.00
2018-09-22T18:08:07.742Z,101359.00
2018-09-22T18:10:10.670Z,101354.00
2018-09-22T18:12:13.705Z,101343.00
2018-09-22T18:14:16.643Z,101342.00
2018-09-22T18:16:19.550Z,101343.00
2018-09-22T18:18:22.709Z,101351.00
2018-09-22T18:20:25.718Z,101354.00
2018-09-22T18:22:28.679Z,101358.00
2018-09-22T18:24:31.720Z,101353.00
2018-09-22T18:26:34.793Z,101343.00
2018-09-22T18:28:37.731Z,101343.00
2018-09-22T18:30:40.672Z,101346.00
2018-09-22T18:32:43.822Z,101353.00
2018-09-22T18:34:46.741Z,101349.00
2018-09-22T18:36:49.680Z,101344.00
2018-09-22T18:38:52.966Z,101336.00
2018-09-22T18:40:57.935Z,101343.00
2018-09-22T18:43:00.884Z,101349.00
2018-09-22T18:45:04.387Z,101349.00
2018-09-22T18:47:07.334Z,101340.00
2018-09-22T18:49:10.294Z,101334.00
2018-09-22T18:51:13.274Z,101327.00
2018-09-22T18:53:16.211Z,101343.00
2018-09-22T18:55:19.340Z,101331.00
2018-09-22T18:57:22.316Z,101329.00
2018-09-22T18:59:25.285Z,101329.00
2018-09-22T19:01:29.333Z,101321.00
2018-09-22T19:03:32.257Z,101322.00
2018-09-22T19:05:35.184Z,101323.00
2018-09-22T19:07:38.166Z,101328.00
2018-09-22T19:09:41.097Z,101340.00
2018-09-22T19:11:44.018Z,101344.00
2018-09-22T19:14:25.248Z,101340.00
2018-09-22T19:16:47.968Z,101337.00
2018-09-22T19:18:57.755Z,101349.00
2018-09-22T19:21:19.638Z,101349.00
2018-09-22T19:23:29.967Z,101351.00
2018-09-22T19:25:35.341Z,101353.00
2018-09-22T19:27:44.059Z,101350.00
2018-09-22T19:29:52.570Z,101355.00
2018-09-22T19:31:59.920Z,101354.00
2018-09-22T19:34:06.040Z,101358.00
2018-09-22T19:36:16.899Z,101373.00
2018-09-22T19:39:27.125Z,101376.00
2018-09-22T19:41:41.883Z,101384.00
2018-09-22T19:43:51.916Z,101400.00
2018-09-22T19:45:58.501Z,101399.00
2018-09-22T19:48:07.348Z,101403.00
2018-09-22T19:50:13.147Z,101409.00
2018-09-22T19:52:19.753Z,101415.00
2018-09-22T19:54:22.795Z,101420.00
2018-09-22T19:56:25.761Z,101424.00
2018-09-22T19:58:29.673Z,101425.00
2018-09-22T20:00:32.674Z,101418.00
2018-09-22T20:02:35.769Z,101415.00
2018-09-22T20:04:38.822Z,101413.00
2018-09-22T20:06:41.859Z,101426.00
2018-09-22T20:08:44.810Z,101426.00
2018-09-22T20:10:47.883Z,101422.00
2018-09-22T20:12:50.983Z,101414.00
2018-09-22T20:14:53.918Z,101411.00
2018-09-22T20:16:58.401Z,101399.00
2018-09-22T20:19:01.541Z,101404.00
2018-09-22T20:21:04.491Z,101404.00
2018-09-22T20:23:07.453Z,101399.00
2018-09-22T20:25:10.439Z,101397.00
2018-09-22T20:27:13.355Z,101406.00
2018-09-22T20:29:16.527Z,101401.00
2018-09-22T20:31:19.469Z,101390.00
2018-09-22T20:33:22.504Z,101386.00
2018-09-22T20:35:25.491Z,101376.00
2018-09-22T20:37:30.494Z,101366.00
2018-09-22T20:39:33.450Z,101380.00
2018-09-22T20:41:36.423Z,101374.00
2018-09-22T20:43:39.437Z,101371.00
2018-09-22T20:45:42.888Z,101368.00
2018-09-22T20:47:46.242Z,101386.00
2018-09-22T20:49:49.188Z,101408.00
2018-09-22T20:51:52.155Z,101416.00
2018-09-22T20:53:55.163Z,101422.00
2018-09-22T20:55:59.922Z,101422.00
2018-09-22T20:58:03.068Z,101436.00
2018-09-22T21:00:07.840Z,101433.00
2018-09-22T21:02:11.172Z,101435.00
2018-09-22T21:04:14.148Z,101434.00
2018-09-22T21:06:17.126Z,101440.00
2018-09-22T21:08:20.138Z,101437.00
2018-09-22T21:10:23.109Z,101439.00
2018-09-22T21:12:27.906Z,101445.00
2018-09-22T21:14:30.886Z,101441.00
2018-09-22T21:16:33.974Z,101436.00
2018-09-22T21:18:37.026Z,101436.00
2018-09-22T21:20:39.982Z,101434.00
2018-09-22T21:22:43.130Z,101433.00
2018-09-22T21:24:46.092Z,101432.00
2018-09-22T21:26:49.271Z,101433.00
2018-09-22T21:28:52.219Z,101428.00
2018-09-22T21:30:55.196Z,101429.00
2018-09-22T21:32:59.823Z,101429.00
2018-09-22T21:35:02.805Z,101427.00
2018-09-22T21:37:05.808Z,101426.00
2018-09-22T21:39:09.721Z,101428.00
2018-09-22T21:41:12.713Z,101434.00
2018-09-22T21:43:15.807Z,101433.00
2018-09-22T21:45:18.982Z,101434.00
2018-09-22T21:47:21.912Z,101436.00
2018-09-22T21:49:24.950Z,101428.00
2018-09-22T21:51:29.510Z,101432.00
2018-09-22T21:53:33.653Z,101429.00
2018-09-22T21:55:36.710Z,101440.00
2018-09-22T21:57:40.022Z,101443.00
2018-09-22T21:59:44.303Z,101435.00
2018-09-22T22:01:47.308Z,101435.00
2018-09-22T22:03:50.308Z,101429.00
2018-09-22T22:05:53.265Z,101424.00
2018-09-22T22:07:57.863Z,101426.00
2018-09-22T22:10:01.225Z,101422.00
2018-09-22T22:12:04.271Z,101433.00
2018-09-22T22:14:08.065Z,101429.00
2018-09-22T22:16:11.016Z,101437.00
2018-09-22T22:18:13.977Z,101434.00
2018-09-22T22:20:16.989Z,101437.00
2018-09-22T22:22:20.022Z,101430.00
2018-09-22T22:24:24.244Z,101423.00
2018-09-22T22:26:28.857Z,101430.00
2018-09-22T22:28:31.862Z,101430.00
2018-09-22T22:30:34.821Z,101427.00
2018-09-22T22:32:37.787Z,101430.00
2018-09-22T22:34:40.720Z,101425.00
2018-09-22T22:36:43.902Z,101426.00
2018-09-22T22:38:46.838Z,101431.00
2018-09-22T22:40:50.008Z,101423.00
2018-09-22T22:42:53.016Z,101423.00
2018-09-22T22:44:57.935Z,101423.00
2018-09-22T22:47:00.958Z,101416.00
2018-09-22T22:49:04.000Z,101415.00
2018-09-22T22:51:07.124Z,101418.00
2018-09-22T22:53:10.106Z,101420.00
2018-09-22T22:55:13.086Z,101411.00
2018-09-22T22:57:16.020Z,101413.00
2018-09-22T22:59:18.986Z,101415.00
2018-09-22T23:01:22.811Z,101425.00
2018-09-22T23:03:27.459Z,101428.00
2018-09-22T23:05:30.449Z,101429.00
2018-09-22T23:07:35.469Z,101430.00
2018-09-22T23:09:38.404Z,101424.00
2018-09-22T23:11:41.378Z,101423.00
2018-09-22T23:13:44.427Z,101419.00
2018-09-22T23:15:47.479Z,101423.00
2018-09-22T23:17:50.458Z,101418.00
2018-09-22T23:19:53.447Z,101419.00
2018-09-22T23:21:58.524Z,101415.00
2018-09-22T23:24:01.509Z,101413.00
2018-09-22T23:26:04.547Z,101409.00
2018-09-22T23:28:07.577Z,101407.00
2018-09-22T23:30:10.546Z,101408.00
2018-09-22T23:32:13.516Z,101404.00
2018-09-22T23:34:16.504Z,101406.00
2018-09-22T23:36:19.474Z,101404.00
2018-09-22T23:38:22.738Z,101402.00
2018-09-22T23:40:25.701Z,101396.00
2018-09-22T23:42:30.079Z,101314.00
2018-09-22T23:44:33.080Z,101403.00
2018-09-22T23:46:36.118Z,101396.00
2018-09-22T23:48:39.102Z,101405.00
2018-09-22T23:50:42.067Z,101407.00
2018-09-22T23:52:45.050Z,101407.00
2018-09-22T23:54:48.047Z,101409.00
2018-09-22T23:56:51.031Z,101408.00
2018-09-22T23:58:54.022Z,101406.00
